sensor_id;sensor_type;location;lat;lon;timestamp;P1;P2;P0
69350;PMS7003;57106;51.446;-2.606;2023-03-21T00:01:27;1;1;
69350;PMS7003;57106;51.446;-2.606;2023-03-21T00:03:52;2;2;
69350;PMS7003;57106;51.446;-2.606;2023-03-21T00:06:18;3;1;
69350;PMS7003;57106;51.446;-2.606;2023-03-21T00:08:44;1;1;
69350;PMS7003;57106;51.446;-2.606;2023-03-21T00:11:09;2;1;
69350;PMS7003;57106;51.446;-2.606;2023-03-21T00:13:35;2;2;
69350;PMS7003;57106;51.446;-2.606;2023-03-21T00:16:03;3;2;
69350;PMS7003;57106;51.446;-2.606;2023-03-21T00:18:26;2;2;
69350;PMS7003;57106;51.446;-2.606;2023-03-21T00:20:55;1;1;
69350;PMS7003;57106;51.446;-2.606;2023-03-21T00:23:17;2;2;
69350;PMS7003;57106;51.446;-2.606;2023-03-21T00:25:47;4;2;
69350;PMS7003;57106;51.446;-2.606;2023-03-21T00:28:08;2;2;
69350;PMS7003;57106;51.446;-2.606;2023-03-21T00:30:33;2;2;
69350;PMS7003;57106;51.446;-2.606;2023-03-21T00:32:59;2;2;
69350;PMS7003;57106;51.446;-2.606;2023-03-21T00:35:24;2;2;
69350;PMS7003;57106;51.446;-2.606;2023-03-21T00:37:50;2;2;
69350;PMS7003;57106;51.446;-2.606;2023-03-21T00:40:15;2;2;
69350;PMS7003;57106;51.446;-2.606;2023-03-21T00:42:41;3;2;
69350;PMS7003;57106;51.446;-2.606;2023-03-21T00:45:07;2;2;
69350;PMS7003;57106;51.446;-2.606;2023-03-21T00:47:32;2;2;
69350;PMS7003;57106;51.446;-2.606;2023-03-21T00:49:57;4;2;
69350;PMS7003;57106;51.446;-2.606;2023-03-21T00:52:23;2;1;
69350;PMS7003;57106;51.446;-2.606;2023-03-21T00:54:48;4;2;
69350;PMS7003;57106;51.446;-2.606;2023-03-21T00:57:14;3;2;
69350;PMS7003;57106;51.446;-2.606;2023-03-21T00:59:40;3;2;
69350;PMS7003;57106;51.446;-2.606;2023-03-21T01:02:05;2;1;
69350;PMS7003;57106;51.446;-2.606;2023-03-21T01:04:31;5;4;
69350;PMS7003;57106;51.446;-2.606;2023-03-21T01:06:56;16;14;
69350;PMS7003;57106;51.446;-2.606;2023-03-21T01:09:22;4;4;
69350;PMS7003;57106;51.446;-2.606;2023-03-21T01:11:47;3;2;
69350;PMS7003;57106;51.446;-2.606;2023-03-21T01:14:13;2;2;
69350;PMS7003;57106;51.446;-2.606;2023-03-21T01:19:04;2;1;
69350;PMS7003;57106;51.446;-2.606;2023-03-21T01:21:29;1;1;
69350;PMS7003;57106;51.446;-2.606;2023-03-21T01:23:55;1;1;
69350;PMS7003;57106;51.446;-2.606;2023-03-21T01:26:20;2;1;
69350;PMS7003;57106;51.446;-2.606;2023-03-21T01:28:46;1;1;
69350;PMS7003;57106;51.446;-2.606;2023-03-21T01:31:12;2;1;
69350;PMS7003;57106;51.446;-2.606;2023-03-21T01:33:37;0;0;
69350;PMS7003;57106;51.446;-2.606;2023-03-21T01:36:02;1;1;
69350;PMS7003;57106;51.446;-2.606;2023-03-21T01:38:28;1;1;
69350;PMS7003;57106;51.446;-2.606;2023-03-21T01:40:54;1;1;
69350;PMS7003;57106;51.446;-2.606;2023-03-21T01:43:21;1;1;
69350;PMS7003;57106;51.446;-2.606;2023-03-21T01:48:10;1;1;
69350;PMS7003;57106;51.446;-2.606;2023-03-21T01:50:36;3;2;
69350;PMS7003;57106;51.446;-2.606;2023-03-21T01:53:01;2;2;
69350;PMS7003;57106;51.446;-2.606;2023-03-21T01:55:27;0;0;
69350;PMS7003;57106;51.446;-2.606;2023-03-21T01:57:55;1;1;
69350;PMS7003;57106;51.446;-2.606;2023-03-21T02:00:18;0;0;
69350;PMS7003;57106;51.446;-2.606;2023-03-21T02:02:43;0;0;
69350;PMS7003;57106;51.446;-2.606;2023-03-21T02:05:09;2;2;
69350;PMS7003;57106;51.446;-2.606;2023-03-21T02:07:35;1;1;
69350;PMS7003;57106;51.446;-2.606;2023-03-21T02:10:00;2;1;
69350;PMS7003;57106;51.446;-2.606;2023-03-21T02:12:26;2;1;
69350;PMS7003;57106;51.446;-2.606;2023-03-21T02:14:51;1;1;
69350;PMS7003;57106;51.446;-2.606;2023-03-21T02:17:18;3;2;
69350;PMS7003;57106;51.446;-2.606;2023-03-21T02:19:48;2;1;
69350;PMS7003;57106;51.446;-2.606;2023-03-21T02:24:38;2;2;
69350;PMS7003;57106;51.446;-2.606;2023-03-21T02:27:05;2;2;
69350;PMS7003;57106;51.446;-2.606;2023-03-21T02:31:50;2;2;
69350;PMS7003;57106;51.446;-2.606;2023-03-21T02:41:34;2;2;
69350;PMS7003;57106;51.446;-2.606;2023-03-21T03:03:21;3;3;
69350;PMS7003;57106;51.446;-2.606;2023-03-21T03:08:17;3;3;
69350;PMS7003;57106;51.446;-2.606;2023-03-21T03:17:57;3;3;
69350;PMS7003;57106;51.446;-2.606;2023-03-21T03:22:48;5;3;
69350;PMS7003;57106;51.446;-2.606;2023-03-21T04:40:23;2;1;
69350;PMS7003;57106;51.446;-2.606;2023-03-21T04:42:49;0;0;
69350;PMS7003;57106;51.446;-2.606;2023-03-21T04:52:31;4;2;
69350;PMS7003;57106;51.446;-2.606;2023-03-21T04:54:59;0;0;
69350;PMS7003;57106;51.446;-2.606;2023-03-21T04:57:22;1;1;
69350;PMS7003;57106;51.446;-2.606;2023-03-21T05:04:46;2;1;
69350;PMS7003;57106;51.446;-2.606;2023-03-21T05:33:50;3;2;
69350;PMS7003;57106;51.446;-2.606;2023-03-21T06:17:24;1;1;
69350;PMS7003;57106;51.446;-2.606;2023-03-21T07:08:21;4;3;
69350;PMS7003;57106;51.446;-2.606;2023-03-21T07:10:46;2;2;
69350;PMS7003;57106;51.446;-2.606;2023-03-21T07:32:36;3;1;
69350;PMS7003;57106;51.446;-2.606;2023-03-21T07:37:32;1;1;
69350;PMS7003;57106;51.446;-2.606;2023-03-21T07:44:48;2;1;
69350;PMS7003;57106;51.446;-2.606;2023-03-21T08:16:15;0;0;
69350;PMS7003;57106;51.446;-2.606;2023-03-21T08:38:04;0;0;
69350;PMS7003;57106;51.446;-2.606;2023-03-21T08:40:35;0;0;
69350;PMS7003;57106;51.446;-2.606;2023-03-21T08:42:55;0;0;
69350;PMS7003;57106;51.446;-2.606;2023-03-21T08:45:21;0;0;
69350;PMS7003;57106;51.446;-2.606;2023-03-21T08:47:50;0;0;
69350;PMS7003;57106;51.446;-2.606;2023-03-21T08:50:13;0;0;
69350;PMS7003;57106;51.446;-2.606;2023-03-21T08:52:37;1;0;
69350;PMS7003;57106;51.446;-2.606;2023-03-21T08:55:02;0;0;
69350;PMS7003;57106;51.446;-2.606;2023-03-21T08:57:29;0;0;
69350;PMS7003;57106;51.446;-2.606;2023-03-21T08:59:53;1;1;
69350;PMS7003;57106;51.446;-2.606;2023-03-21T09:02:18;0;0;
69350;PMS7003;57106;51.446;-2.606;2023-03-21T09:04:44;1;0;
69350;PMS7003;57106;51.446;-2.606;2023-03-21T09:07:09;1;1;
69350;PMS7003;57106;51.446;-2.606;2023-03-21T09:09:35;0;0;
69350;PMS7003;57106;51.446;-2.606;2023-03-21T09:12:00;0;0;
69350;PMS7003;57106;51.446;-2.606;2023-03-21T09:14:26;0;0;
69350;PMS7003;57106;51.446;-2.606;2023-03-21T09:16:51;0;0;
69350;PMS7003;57106;51.446;-2.606;2023-03-21T09:19:17;0;0;
69350;PMS7003;57106;51.446;-2.606;2023-03-21T09:21:42;0;0;
69350;PMS7003;57106;51.446;-2.606;2023-03-21T09:24:08;1;0;
69350;PMS7003;57106;51.446;-2.606;2023-03-21T09:26:33;0;0;
69350;PMS7003;57106;51.446;-2.606;2023-03-21T09:28:59;0;0;
69350;PMS7003;57106;51.446;-2.606;2023-03-21T09:31:25;0;0;
69350;PMS7003;57106;51.446;-2.606;2023-03-21T09:33:50;0;0;
69350;PMS7003;57106;51.446;-2.606;2023-03-21T09:36:15;1;0;
69350;PMS7003;57106;51.446;-2.606;2023-03-21T09:38:40;0;0;
69350;PMS7003;57106;51.446;-2.606;2023-03-21T09:41:12;1;1;
69350;PMS7003;57106;51.446;-2.606;2023-03-21T09:43:35;0;0;
69350;PMS7003;57106;51.446;-2.606;2023-03-21T09:45:57;0;0;
69350;PMS7003;57106;51.446;-2.606;2023-03-21T09:48:23;0;0;
69350;PMS7003;57106;51.446;-2.606;2023-03-21T09:50:47;0;0;
69350;PMS7003;57106;51.446;-2.606;2023-03-21T09:53:15;0;0;
69350;PMS7003;57106;51.446;-2.606;2023-03-21T09:55:39;1;0;
69350;PMS7003;57106;51.446;-2.606;2023-03-21T09:58:06;0;0;
69350;PMS7003;57106;51.446;-2.606;2023-03-21T10:00:31;1;0;
69350;PMS7003;57106;51.446;-2.606;2023-03-21T10:02:55;0;0;
69350;PMS7003;57106;51.446;-2.606;2023-03-21T10:05:22;1;0;
69350;PMS7003;57106;51.446;-2.606;2023-03-21T10:07:49;0;0;
69350;PMS7003;57106;51.446;-2.606;2023-03-21T10:10:12;0;0;
69350;PMS7003;57106;51.446;-2.606;2023-03-21T10:12:36;0;0;
69350;PMS7003;57106;51.446;-2.606;2023-03-21T10:15:02;0;0;
69350;PMS7003;57106;51.446;-2.606;2023-03-21T10:17:28;1;0;
69350;PMS7003;57106;51.446;-2.606;2023-03-21T10:19:55;0;0;
69350;PMS7003;57106;51.446;-2.606;2023-03-21T10:22:18;0;0;
69350;PMS7003;57106;51.446;-2.606;2023-03-21T10:24:44;0;0;
69350;PMS7003;57106;51.446;-2.606;2023-03-21T10:27:09;0;0;
69350;PMS7003;57106;51.446;-2.606;2023-03-21T10:29:37;0;0;
69350;PMS7003;57106;51.446;-2.606;2023-03-21T10:32:00;0;0;
69350;PMS7003;57106;51.446;-2.606;2023-03-21T10:34:28;0;0;
69350;PMS7003;57106;51.446;-2.606;2023-03-21T10:36:51;0;0;
69350;PMS7003;57106;51.446;-2.606;2023-03-21T10:39:19;0;0;
69350;PMS7003;57106;51.446;-2.606;2023-03-21T10:41:42;0;0;
69350;PMS7003;57106;51.446;-2.606;2023-03-21T10:44:08;0;0;
69350;PMS7003;57106;51.446;-2.606;2023-03-21T10:46:33;0;0;
69350;PMS7003;57106;51.446;-2.606;2023-03-21T10:48:58;0;0;
69350;PMS7003;57106;51.446;-2.606;2023-03-21T10:51:25;0;0;
69350;PMS7003;57106;51.446;-2.606;2023-03-21T10:53:50;0;0;
69350;PMS7003;57106;51.446;-2.606;2023-03-21T10:56:14;0;0;
69350;PMS7003;57106;51.446;-2.606;2023-03-21T10:58:41;0;0;
69350;PMS7003;57106;51.446;-2.606;2023-03-21T11:01:06;0;0;
69350;PMS7003;57106;51.446;-2.606;2023-03-21T11:03:31;0;0;
69350;PMS7003;57106;51.446;-2.606;2023-03-21T11:06:04;0;0;
69350;PMS7003;57106;51.446;-2.606;2023-03-21T11:08:21;0;0;
69350;PMS7003;57106;51.446;-2.606;2023-03-21T11:10:50;0;0;
69350;PMS7003;57106;51.446;-2.606;2023-03-21T11:13:15;0;0;
69350;PMS7003;57106;51.446;-2.606;2023-03-21T11:15:40;1;0;
69350;PMS7003;57106;51.446;-2.606;2023-03-21T11:20:29;0;0;
69350;PMS7003;57106;51.446;-2.606;2023-03-21T11:22:54;0;0;
69350;PMS7003;57106;51.446;-2.606;2023-03-21T11:25:20;0;0;
69350;PMS7003;57106;51.446;-2.606;2023-03-21T11:27:46;0;0;
69350;PMS7003;57106;51.446;-2.606;2023-03-21T11:30:16;3;0;
69350;PMS7003;57106;51.446;-2.606;2023-03-21T11:32:36;0;0;
69350;PMS7003;57106;51.446;-2.606;2023-03-21T11:35:03;0;0;
69350;PMS7003;57106;51.446;-2.606;2023-03-21T11:37:29;0;0;
69350;PMS7003;57106;51.446;-2.606;2023-03-21T11:39:55;0;0;
69350;PMS7003;57106;51.446;-2.606;2023-03-21T11:42:24;0;0;
69350;PMS7003;57106;51.446;-2.606;2023-03-21T11:44:43;0;0;
69350;PMS7003;57106;51.446;-2.606;2023-03-21T11:47:09;2;0;
69350;PMS7003;57106;51.446;-2.606;2023-03-21T11:49:34;0;0;
69350;PMS7003;57106;51.446;-2.606;2023-03-21T11:52:03;0;0;
69350;PMS7003;57106;51.446;-2.606;2023-03-21T11:54:26;3;0;
69350;PMS7003;57106;51.446;-2.606;2023-03-21T11:56:50;1;0;
69350;PMS7003;57106;51.446;-2.606;2023-03-21T11:59:18;1;0;
69350;PMS7003;57106;51.446;-2.606;2023-03-21T12:01:43;0;0;
69350;PMS7003;57106;51.446;-2.606;2023-03-21T12:04:11;0;0;
69350;PMS7003;57106;51.446;-2.606;2023-03-21T12:06:34;0;0;
69350;PMS7003;57106;51.446;-2.606;2023-03-21T12:09:02;0;0;
69350;PMS7003;57106;51.446;-2.606;2023-03-21T12:11:24;0;0;
69350;PMS7003;57106;51.446;-2.606;2023-03-21T12:13:51;2;1;
69350;PMS7003;57106;51.446;-2.606;2023-03-21T12:16:18;0;0;
69350;PMS7003;57106;51.446;-2.606;2023-03-21T12:18:43;0;0;
69350;PMS7003;57106;51.446;-2.606;2023-03-21T12:21:05;0;0;
69350;PMS7003;57106;51.446;-2.606;2023-03-21T12:23:33;1;0;
69350;PMS7003;57106;51.446;-2.606;2023-03-21T12:26:05;0;0;
69350;PMS7003;57106;51.446;-2.606;2023-03-21T12:28:23;0;0;
69350;PMS7003;57106;51.446;-2.606;2023-03-21T12:30:48;1;0;
69350;PMS7003;57106;51.446;-2.606;2023-03-21T12:33:13;0;0;
69350;PMS7003;57106;51.446;-2.606;2023-03-21T12:35:39;0;0;
69350;PMS7003;57106;51.446;-2.606;2023-03-21T12:38:05;1;0;
69350;PMS7003;57106;51.446;-2.606;2023-03-21T12:40:33;2;1;
69350;PMS7003;57106;51.446;-2.606;2023-03-21T12:42:58;4;0;
69350;PMS7003;57106;51.446;-2.606;2023-03-21T12:45:19;2;1;
69350;PMS7003;57106;51.446;-2.606;2023-03-21T12:47:45;2;2;
69350;PMS7003;57106;51.446;-2.606;2023-03-21T12:50:11;0;0;
69350;PMS7003;57106;51.446;-2.606;2023-03-21T12:52:35;0;0;
69350;PMS7003;57106;51.446;-2.606;2023-03-21T12:55:01;0;0;
69350;PMS7003;57106;51.446;-2.606;2023-03-21T12:57:27;2;0;
69350;PMS7003;57106;51.446;-2.606;2023-03-21T12:59:53;0;0;
69350;PMS7003;57106;51.446;-2.606;2023-03-21T13:02:17;2;0;
69350;PMS7003;57106;51.446;-2.606;2023-03-21T13:04:45;1;0;
69350;PMS7003;57106;51.446;-2.606;2023-03-21T13:07:08;1;0;
69350;PMS7003;57106;51.446;-2.606;2023-03-21T13:09:33;1;1;
69350;PMS7003;57106;51.446;-2.606;2023-03-21T13:14:24;0;0;
69350;PMS7003;57106;51.446;-2.606;2023-03-21T13:16:50;1;0;
69350;PMS7003;57106;51.446;-2.606;2023-03-21T13:19:17;0;0;
69350;PMS7003;57106;51.446;-2.606;2023-03-21T13:21:42;1;1;
69350;PMS7003;57106;51.446;-2.606;2023-03-21T13:26:31;0;0;
69350;PMS7003;57106;51.446;-2.606;2023-03-21T13:28:56;1;0;
69350;PMS7003;57106;51.446;-2.606;2023-03-21T13:31:23;0;0;
69350;PMS7003;57106;51.446;-2.606;2023-03-21T13:33:47;3;1;
69350;PMS7003;57106;51.446;-2.606;2023-03-21T13:36:13;0;0;
69350;PMS7003;57106;51.446;-2.606;2023-03-21T13:38:38;1;0;
69350;PMS7003;57106;51.446;-2.606;2023-03-21T13:41:04;1;0;
69350;PMS7003;57106;51.446;-2.606;2023-03-21T13:43:31;1;1;
69350;PMS7003;57106;51.446;-2.606;2023-03-21T13:45:54;0;0;
69350;PMS7003;57106;51.446;-2.606;2023-03-21T13:48:24;2;0;
69350;PMS7003;57106;51.446;-2.606;2023-03-21T13:50:50;0;0;
69350;PMS7003;57106;51.446;-2.606;2023-03-21T13:55:39;0;0;
69350;PMS7003;57106;51.446;-2.606;2023-03-21T14:00:28;1;1;
69350;PMS7003;57106;51.446;-2.606;2023-03-21T14:02:53;0;0;
69350;PMS7003;57106;51.446;-2.606;2023-03-21T14:05:19;0;0;
69350;PMS7003;57106;51.446;-2.606;2023-03-21T14:07:43;1;1;
69350;PMS7003;57106;51.446;-2.606;2023-03-21T14:10:16;2;0;
69350;PMS7003;57106;51.446;-2.606;2023-03-21T14:12:36;0;0;
69350;PMS7003;57106;51.446;-2.606;2023-03-21T14:15:00;0;0;
69350;PMS7003;57106;51.446;-2.606;2023-03-21T14:17:30;0;0;
69350;PMS7003;57106;51.446;-2.606;2023-03-21T14:19:51;0;0;
69350;PMS7003;57106;51.446;-2.606;2023-03-21T14:22:15;1;0;
69350;PMS7003;57106;51.446;-2.606;2023-03-21T14:24:45;0;0;
69350;PMS7003;57106;51.446;-2.606;2023-03-21T14:27:11;0;0;
69350;PMS7003;57106;51.446;-2.606;2023-03-21T14:29:33;1;0;
69350;PMS7003;57106;51.446;-2.606;2023-03-21T14:31:58;0;0;
69350;PMS7003;57106;51.446;-2.606;2023-03-21T14:34:23;1;0;
69350;PMS7003;57106;51.446;-2.606;2023-03-21T14:36:50;1;0;
69350;PMS7003;57106;51.446;-2.606;2023-03-21T14:39:15;0;0;
69350;PMS7003;57106;51.446;-2.606;2023-03-21T14:41:42;0;0;
69350;PMS7003;57106;51.446;-2.606;2023-03-21T14:44:11;1;1;
69350;PMS7003;57106;51.446;-2.606;2023-03-21T14:46:29;0;0;
69350;PMS7003;57106;51.446;-2.606;2023-03-21T14:51:20;0;0;
69350;PMS7003;57106;51.446;-2.606;2023-03-21T14:53:46;1;1;
69350;PMS7003;57106;51.446;-2.606;2023-03-21T14:56:14;1;1;
69350;PMS7003;57106;51.446;-2.606;2023-03-21T14:58:37;0;0;
69350;PMS7003;57106;51.446;-2.606;2023-03-21T15:01:03;0;0;
69350;PMS7003;57106;51.446;-2.606;2023-03-21T15:03:27;1;1;
69350;PMS7003;57106;51.446;-2.606;2023-03-21T15:05:53;0;0;
69350;PMS7003;57106;51.446;-2.606;2023-03-21T15:08:19;1;0;
69350;PMS7003;57106;51.446;-2.606;2023-03-21T15:13:12;2;2;
69350;PMS7003;57106;51.446;-2.606;2023-03-21T15:15:34;1;0;
69350;PMS7003;57106;51.446;-2.606;2023-03-21T15:18:02;3;1;
69350;PMS7003;57106;51.446;-2.606;2023-03-21T15:20:26;0;0;
69350;PMS7003;57106;51.446;-2.606;2023-03-21T15:22:51;0;0;
69350;PMS7003;57106;51.446;-2.606;2023-03-21T15:25:16;0;0;
69350;PMS7003;57106;51.446;-2.606;2023-03-21T15:27:41;1;0;
69350;PMS7003;57106;51.446;-2.606;2023-03-21T15:32:33;1;1;
69350;PMS7003;57106;51.446;-2.606;2023-03-21T15:35:03;1;0;
69350;PMS7003;57106;51.446;-2.606;2023-03-21T15:37:24;1;0;
69350;PMS7003;57106;51.446;-2.606;2023-03-21T15:39:48;2;1;
69350;PMS7003;57106;51.446;-2.606;2023-03-21T15:42:22;1;0;
69350;PMS7003;57106;51.446;-2.606;2023-03-21T15:44:44;1;0;
69350;PMS7003;57106;51.446;-2.606;2023-03-21T15:47:05;1;0;
69350;PMS7003;57106;51.446;-2.606;2023-03-21T15:49:31;2;1;
69350;PMS7003;57106;51.446;-2.606;2023-03-21T15:54:23;1;0;
69350;PMS7003;57106;51.446;-2.606;2023-03-21T15:56:47;1;0;
69350;PMS7003;57106;51.446;-2.606;2023-03-21T15:59:13;1;0;
69350;PMS7003;57106;51.446;-2.606;2023-03-21T16:01:37;2;0;
69350;PMS7003;57106;51.446;-2.606;2023-03-21T16:04:04;1;0;
69350;PMS7003;57106;51.446;-2.606;2023-03-21T16:06:29;1;0;
69350;PMS7003;57106;51.446;-2.606;2023-03-21T16:11:22;0;0;
69350;PMS7003;57106;51.446;-2.606;2023-03-21T16:13:45;1;0;
69350;PMS7003;57106;51.446;-2.606;2023-03-21T16:16:13;0;0;
69350;PMS7003;57106;51.446;-2.606;2023-03-21T16:21:01;0;0;
69350;PMS7003;57106;51.446;-2.606;2023-03-21T16:23:27;0;0;
69350;PMS7003;57106;51.446;-2.606;2023-03-21T16:25:52;0;0;
69350;PMS7003;57106;51.446;-2.606;2023-03-21T16:28:17;0;0;
69350;PMS7003;57106;51.446;-2.606;2023-03-21T16:30:43;0;0;
69350;PMS7003;57106;51.446;-2.606;2023-03-21T16:33:09;0;0;
69350;PMS7003;57106;51.446;-2.606;2023-03-21T16:35:34;3;2;
69350;PMS7003;57106;51.446;-2.606;2023-03-21T16:37:59;1;0;
69350;PMS7003;57106;51.446;-2.606;2023-03-21T16:40:26;0;0;
69350;PMS7003;57106;51.446;-2.606;2023-03-21T16:42:50;0;0;
69350;PMS7003;57106;51.446;-2.606;2023-03-21T16:45:16;2;1;
69350;PMS7003;57106;51.446;-2.606;2023-03-21T16:47:41;0;0;
69350;PMS7003;57106;51.446;-2.606;2023-03-21T16:50:17;1;1;
69350;PMS7003;57106;51.446;-2.606;2023-03-21T16:52:32;1;1;
69350;PMS7003;57106;51.446;-2.606;2023-03-21T16:54:58;0;0;
69350;PMS7003;57106;51.446;-2.606;2023-03-21T16:57:24;2;0;
69350;PMS7003;57106;51.446;-2.606;2023-03-21T16:59:48;0;0;
69350;PMS7003;57106;51.446;-2.606;2023-03-21T17:02:14;0;0;
69350;PMS7003;57106;51.446;-2.606;2023-03-21T17:04:40;0;0;
69350;PMS7003;57106;51.446;-2.606;2023-03-21T17:07:05;0;0;
69350;PMS7003;57106;51.446;-2.606;2023-03-21T17:09:30;3;0;
69350;PMS7003;57106;51.446;-2.606;2023-03-21T17:11:56;0;0;
69350;PMS7003;57106;51.446;-2.606;2023-03-21T17:14:21;0;0;
69350;PMS7003;57106;51.446;-2.606;2023-03-21T17:16:47;2;1;
69350;PMS7003;57106;51.446;-2.606;2023-03-21T17:19:13;2;0;
69350;PMS7003;57106;51.446;-2.606;2023-03-21T17:21:38;2;1;
69350;PMS7003;57106;51.446;-2.606;2023-03-21T17:24:04;5;3;
69350;PMS7003;57106;51.446;-2.606;2023-03-21T17:26:29;3;3;
69350;PMS7003;57106;51.446;-2.606;2023-03-21T17:28:55;6;5;
69350;PMS7003;57106;51.446;-2.606;2023-03-21T17:31:21;8;6;
69350;PMS7003;57106;51.446;-2.606;2023-03-21T17:33:45;28;25;
69350;PMS7003;57106;51.446;-2.606;2023-03-21T17:36:11;52;44;
69350;PMS7003;57106;51.446;-2.606;2023-03-21T17:38:37;15;15;
69350;PMS7003;57106;51.446;-2.606;2023-03-21T17:41:02;6;5;
69350;PMS7003;57106;51.446;-2.606;2023-03-21T17:43:27;2;2;
69350;PMS7003;57106;51.446;-2.606;2023-03-21T17:45:54;2;2;
69350;PMS7003;57106;51.446;-2.606;2023-03-21T17:48:18;1;0;
69350;PMS7003;57106;51.446;-2.606;2023-03-21T17:50:44;0;0;
69350;PMS7003;57106;51.446;-2.606;2023-03-21T17:53:09;1;1;
69350;PMS7003;57106;51.446;-2.606;2023-03-21T17:55:35;1;1;
69350;PMS7003;57106;51.446;-2.606;2023-03-21T17:58:00;1;0;
69350;PMS7003;57106;51.446;-2.606;2023-03-21T18:00:27;2;1;
69350;PMS7003;57106;51.446;-2.606;2023-03-21T18:02:51;3;2;
69350;PMS7003;57106;51.446;-2.606;2023-03-21T18:05:17;3;3;
69350;PMS7003;57106;51.446;-2.606;2023-03-21T18:07:42;3;2;
69350;PMS7003;57106;51.446;-2.606;2023-03-21T18:10:10;7;5;
69350;PMS7003;57106;51.446;-2.606;2023-03-21T18:12:33;4;3;
69350;PMS7003;57106;51.446;-2.606;2023-03-21T18:14:59;2;2;
69350;PMS7003;57106;51.446;-2.606;2023-03-21T18:17:24;3;2;
69350;PMS7003;57106;51.446;-2.606;2023-03-21T18:19:50;1;0;
69350;PMS7003;57106;51.446;-2.606;2023-03-21T18:22:15;0;0;
69350;PMS7003;57106;51.446;-2.606;2023-03-21T18:24:41;2;2;
69350;PMS7003;57106;51.446;-2.606;2023-03-21T18:27:06;1;1;
69350;PMS7003;57106;51.446;-2.606;2023-03-21T18:29:32;1;1;
69350;PMS7003;57106;51.446;-2.606;2023-03-21T18:31:57;0;0;
69350;PMS7003;57106;51.446;-2.606;2023-03-21T18:34:23;3;3;
69350;PMS7003;57106;51.446;-2.606;2023-03-21T18:36:48;0;0;
69350;PMS7003;57106;51.446;-2.606;2023-03-21T18:39:14;2;2;
69350;PMS7003;57106;51.446;-2.606;2023-03-21T18:41:39;1;1;
69350;PMS7003;57106;51.446;-2.606;2023-03-21T18:46:35;1;1;
69350;PMS7003;57106;51.446;-2.606;2023-03-21T18:48:55;4;2;
69350;PMS7003;57106;51.446;-2.606;2023-03-21T18:51:21;1;1;
69350;PMS7003;57106;51.446;-2.606;2023-03-21T18:53:46;4;1;
69350;PMS7003;57106;51.446;-2.606;2023-03-21T18:56:12;3;2;
69350;PMS7003;57106;51.446;-2.606;2023-03-21T18:58:38;3;2;
69350;PMS7003;57106;51.446;-2.606;2023-03-21T19:01:03;1;1;
69350;PMS7003;57106;51.446;-2.606;2023-03-21T19:03:29;5;2;
69350;PMS7003;57106;51.446;-2.606;2023-03-21T19:05:56;3;2;
69350;PMS7003;57106;51.446;-2.606;2023-03-21T19:08:19;3;0;
69350;PMS7003;57106;51.446;-2.606;2023-03-21T19:10:45;2;1;
69350;PMS7003;57106;51.446;-2.606;2023-03-21T19:13:15;1;1;
69350;PMS7003;57106;51.446;-2.606;2023-03-21T19:15:36;4;2;
69350;PMS7003;57106;51.446;-2.606;2023-03-21T19:18:01;5;2;
69350;PMS7003;57106;51.446;-2.606;2023-03-21T19:20:27;2;1;
69350;PMS7003;57106;51.446;-2.606;2023-03-21T19:22:52;2;1;
69350;PMS7003;57106;51.446;-2.606;2023-03-21T19:25:18;2;1;
69350;PMS7003;57106;51.446;-2.606;2023-03-21T19:27:43;2;1;
69350;PMS7003;57106;51.446;-2.606;2023-03-21T19:30:10;4;2;
69350;PMS7003;57106;51.446;-2.606;2023-03-21T19:32:34;4;2;
69350;PMS7003;57106;51.446;-2.606;2023-03-21T19:35:00;3;2;
69350;PMS7003;57106;51.446;-2.606;2023-03-21T19:37:25;3;2;
69350;PMS7003;57106;51.446;-2.606;2023-03-21T19:39:50;3;3;
69350;PMS7003;57106;51.446;-2.606;2023-03-21T19:42:16;2;2;
69350;PMS7003;57106;51.446;-2.606;2023-03-21T19:44:42;2;2;
69350;PMS7003;57106;51.446;-2.606;2023-03-21T19:47:07;4;3;
69350;PMS7003;57106;51.446;-2.606;2023-03-21T19:49:33;4;3;
69350;PMS7003;57106;51.446;-2.606;2023-03-21T19:51:58;3;3;
69350;PMS7003;57106;51.446;-2.606;2023-03-21T19:54:24;8;5;
69350;PMS7003;57106;51.446;-2.606;2023-03-21T19:56:54;11;7;
69350;PMS7003;57106;51.446;-2.606;2023-03-21T19:59:15;4;3;
69350;PMS7003;57106;51.446;-2.606;2023-03-21T20:01:40;11;8;
69350;PMS7003;57106;51.446;-2.606;2023-03-21T20:04:06;6;4;
69350;PMS7003;57106;51.446;-2.606;2023-03-21T20:06:31;4;3;
69350;PMS7003;57106;51.446;-2.606;2023-03-21T20:08:57;7;7;
69350;PMS7003;57106;51.446;-2.606;2023-03-21T20:11:23;7;6;
69350;PMS7003;57106;51.446;-2.606;2023-03-21T20:13:48;4;3;
69350;PMS7003;57106;51.446;-2.606;2023-03-21T20:16:14;5;4;
69350;PMS7003;57106;51.446;-2.606;2023-03-21T20:18:39;5;3;
69350;PMS7003;57106;51.446;-2.606;2023-03-21T20:21:04;3;3;
69350;PMS7003;57106;51.446;-2.606;2023-03-21T20:23:30;5;3;
69350;PMS7003;57106;51.446;-2.606;2023-03-21T20:25:55;6;5;
69350;PMS7003;57106;51.446;-2.606;2023-03-21T20:28:21;6;3;
69350;PMS7003;57106;51.446;-2.606;2023-03-21T20:30:47;7;6;
69350;PMS7003;57106;51.446;-2.606;2023-03-21T20:33:12;5;5;
69350;PMS7003;57106;51.446;-2.606;2023-03-21T20:35:37;8;4;
69350;PMS7003;57106;51.446;-2.606;2023-03-21T20:38:03;4;4;
69350;PMS7003;57106;51.446;-2.606;2023-03-21T20:40:28;2;2;
69350;PMS7003;57106;51.446;-2.606;2023-03-21T20:42:54;5;4;
69350;PMS7003;57106;51.446;-2.606;2023-03-21T20:45:19;6;3;
69350;PMS7003;57106;51.446;-2.606;2023-03-21T20:47:45;5;3;
69350;PMS7003;57106;51.446;-2.606;2023-03-21T20:50:11;6;4;
69350;PMS7003;57106;51.446;-2.606;2023-03-21T20:52:36;6;6;
69350;PMS7003;57106;51.446;-2.606;2023-03-21T20:55:01;6;5;
69350;PMS7003;57106;51.446;-2.606;2023-03-21T20:57:27;3;3;
69350;PMS7003;57106;51.446;-2.606;2023-03-21T20:59:52;6;3;
69350;PMS7003;57106;51.446;-2.606;2023-03-21T21:02:18;6;5;
69350;PMS7003;57106;51.446;-2.606;2023-03-21T21:04:43;9;6;
69350;PMS7003;57106;51.446;-2.606;2023-03-21T21:07:10;6;4;
69350;PMS7003;57106;51.446;-2.606;2023-03-21T21:09:34;10;5;
69350;PMS7003;57106;51.446;-2.606;2023-03-21T21:12:00;10;6;
69350;PMS7003;57106;51.446;-2.606;2023-03-21T21:14:25;6;5;
69350;PMS7003;57106;51.446;-2.606;2023-03-21T21:16:51;3;3;
69350;PMS7003;57106;51.446;-2.606;2023-03-21T21:19:16;5;3;
69350;PMS7003;57106;51.446;-2.606;2023-03-21T21:21:42;5;3;
69350;PMS7003;57106;51.446;-2.606;2023-03-21T21:24:07;7;7;
69350;PMS7003;57106;51.446;-2.606;2023-03-21T21:26:33;9;9;
69350;PMS7003;57106;51.446;-2.606;2023-03-21T21:28:58;12;10;
69350;PMS7003;57106;51.446;-2.606;2023-03-21T21:31:24;8;5;
69350;PMS7003;57106;51.446;-2.606;2023-03-21T21:33:49;11;9;
69350;PMS7003;57106;51.446;-2.606;2023-03-21T21:36:15;6;5;
69350;PMS7003;57106;51.446;-2.606;2023-03-21T21:38:40;7;6;
69350;PMS7003;57106;51.446;-2.606;2023-03-21T21:41:06;7;6;
69350;PMS7003;57106;51.446;-2.606;2023-03-21T21:43:31;10;4;
69350;PMS7003;57106;51.446;-2.606;2023-03-21T21:45:56;12;9;
69350;PMS7003;57106;51.446;-2.606;2023-03-21T21:48:21;18;12;
69350;PMS7003;57106;51.446;-2.606;2023-03-21T21:50:47;6;4;
69350;PMS7003;57106;51.446;-2.606;2023-03-21T21:53:12;6;4;
69350;PMS7003;57106;51.446;-2.606;2023-03-21T21:55:37;9;6;
69350;PMS7003;57106;51.446;-2.606;2023-03-21T21:58:02;9;6;
69350;PMS7003;57106;51.446;-2.606;2023-03-21T22:00:28;4;3;
69350;PMS7003;57106;51.446;-2.606;2023-03-21T22:05:19;4;3;
69350;PMS7003;57106;51.446;-2.606;2023-03-21T22:07:44;7;5;
69350;PMS7003;57106;51.446;-2.606;2023-03-21T22:10:10;4;3;
69350;PMS7003;57106;51.446;-2.606;2023-03-21T22:12:35;3;2;
69350;PMS7003;57106;51.446;-2.606;2023-03-21T22:15:01;15;10;
69350;PMS7003;57106;51.446;-2.606;2023-03-21T22:17:26;6;6;
69350;PMS7003;57106;51.446;-2.606;2023-03-21T22:19:52;4;4;